Tacoma Park, South Dakota
Current Conditions -  °F | °C
As of 1:53 AM on Sunday 21 Dec 2014 (Local Time) from KABR Reporting Station
Haze Haze  
Wind Chill: -6°   Ceiling: 400
Heat Index: -1°   Visibility: 6mi
Dew Point: -2°   Wind: 10mph
Humidity: 92%   Direction: 180°S
Pressure: 29.84"   Gusts: NA
Location:  45.6832°N, 98.2967°W
Report Text: KABR 210753Z AUTO 18009KT 6SM BR OVC004 M01/M02 A2984 RMK AO2 SLP120 T10111022
Loading
Personal Weather Stations






























Interactive Weather Map New forecast layout! Learn more

10-Day Weather Forecast

Advertisements
Track Severe Weather on mobile